sensor_id;sensor_type;location;lat;lon;timestamp;P1;durP1;ratioP1;P2;durP2;ratioP2
48881;SDS011;57063;51.406;-2.402;2024-01-07T00:02:22;21.65;;;9.02;;
48881;SDS011;57063;51.406;-2.402;2024-01-07T00:04:48;14.32;;;7.75;;
48881;SDS011;57063;51.406;-2.402;2024-01-07T00:07:13;16.20;;;7.63;;
48881;SDS011;57063;51.406;-2.402;2024-01-07T00:09:39;12.75;;;8.27;;
48881;SDS011;57063;51.406;-2.402;2024-01-07T00:12:04;12.68;;;6.85;;
48881;SDS011;57063;51.406;-2.402;2024-01-07T00:14:30;17.52;;;6.82;;
48881;SDS011;57063;51.406;-2.402;2024-01-07T00:16:55;11.65;;;7.28;;
48881;SDS011;57063;51.406;-2.402;2024-01-07T00:19:20;17.70;;;7.15;;
48881;SDS011;57063;51.406;-2.402;2024-01-07T00:21:46;10.25;;;6.32;;
48881;SDS011;57063;51.406;-2.402;2024-01-07T00:24:11;13.45;;;7.10;;
48881;SDS011;57063;51.406;-2.402;2024-01-07T00:26:36;18.42;;;7.55;;
48881;SDS011;57063;51.406;-2.402;2024-01-07T00:29:02;14.93;;;6.85;;
48881;SDS011;57063;51.406;-2.402;2024-01-07T00:31:27;10.70;;;6.60;;
48881;SDS011;57063;51.406;-2.402;2024-01-07T00:33:52;16.20;;;6.63;;
48881;SDS011;57063;51.406;-2.402;2024-01-07T00:36:18;20.90;;;8.68;;
48881;SDS011;57063;51.406;-2.402;2024-01-07T00:38:43;15.95;;;7.45;;
48881;SDS011;57063;51.406;-2.402;2024-01-07T00:41:09;13.20;;;6.63;;
48881;SDS011;57063;51.406;-2.402;2024-01-07T00:43:34;17.30;;;9.20;;
48881;SDS011;57063;51.406;-2.402;2024-01-07T00:45:59;17.05;;;7.82;;
48881;SDS011;57063;51.406;-2.402;2024-01-07T00:48:25;13.98;;;8.35;;
48881;SDS011;57063;51.406;-2.402;2024-01-07T00:50:50;19.20;;;8.82;;
48881;SDS011;57063;51.406;-2.402;2024-01-07T00:53:15;12.10;;;7.90;;
48881;SDS011;57063;51.406;-2.402;2024-01-07T00:55:41;17.15;;;8.40;;
48881;SDS011;57063;51.406;-2.402;2024-01-07T00:58:06;15.43;;;9.57;;
48881;SDS011;57063;51.406;-2.402;2024-01-07T01:00:31;14.55;;;9.07;;
48881;SDS011;57063;51.406;-2.402;2024-01-07T01:02:57;20.45;;;11.35;;
48881;SDS011;57063;51.406;-2.402;2024-01-07T01:05:23;15.05;;;9.18;;
48881;SDS011;57063;51.406;-2.402;2024-01-07T01:07:48;15.68;;;10.15;;
48881;SDS011;57063;51.406;-2.402;2024-01-07T01:10:14;15.27;;;8.82;;
48881;SDS011;57063;51.406;-2.402;2024-01-07T01:12:42;19.65;;;11.05;;
48881;SDS011;57063;51.406;-2.402;2024-01-07T01:15:08;12.38;;;9.43;;
48881;SDS011;57063;51.406;-2.402;2024-01-07T01:17:34;20.33;;;10.20;;
48881;SDS011;57063;51.406;-2.402;2024-01-07T01:19:59;19.05;;;10.55;;
48881;SDS011;57063;51.406;-2.402;2024-01-07T01:22:25;19.35;;;10.75;;
48881;SDS011;57063;51.406;-2.402;2024-01-07T01:24:50;24.38;;;11.50;;
48881;SDS011;57063;51.406;-2.402;2024-01-07T01:27:16;27.77;;;13.02;;
48881;SDS011;57063;51.406;-2.402;2024-01-07T01:29:41;17.45;;;11.93;;
48881;SDS011;57063;51.406;-2.402;2024-01-07T01:32:07;20.05;;;12.18;;
48881;SDS011;57063;51.406;-2.402;2024-01-07T01:34:32;23.10;;;13.25;;
48881;SDS011;57063;51.406;-2.402;2024-01-07T01:36:57;21.73;;;13.43;;
48881;SDS011;57063;51.406;-2.402;2024-01-07T01:39:23;22.50;;;12.75;;
48881;SDS011;57063;51.406;-2.402;2024-01-07T01:41:48;17.30;;;12.45;;
48881;SDS011;57063;51.406;-2.402;2024-01-07T01:44:13;23.83;;;12.73;;
48881;SDS011;57063;51.406;-2.402;2024-01-07T01:46:39;19.85;;;12.55;;
48881;SDS011;57063;51.406;-2.402;2024-01-07T01:49:04;23.75;;;13.40;;
48881;SDS011;57063;51.406;-2.402;2024-01-07T01:51:31;21.90;;;12.25;;
48881;SDS011;57063;51.406;-2.402;2024-01-07T01:53:56;21.63;;;12.23;;
48881;SDS011;57063;51.406;-2.402;2024-01-07T01:56:23;21.50;;;12.45;;
48881;SDS011;57063;51.406;-2.402;2024-01-07T01:58:52;22.25;;;13.20;;
48881;SDS011;57063;51.406;-2.402;2024-01-07T02:01:17;27.90;;;14.15;;
48881;SDS011;57063;51.406;-2.402;2024-01-07T02:03:43;19.95;;;13.45;;
48881;SDS011;57063;51.406;-2.402;2024-01-07T02:06:09;31.65;;;16.10;;
48881;SDS011;57063;51.406;-2.402;2024-01-07T02:08:37;22.40;;;14.15;;
48881;SDS011;57063;51.406;-2.402;2024-01-07T02:11:19;27.80;;;15.35;;
48881;SDS011;57063;51.406;-2.402;2024-01-07T02:13:46;25.52;;;14.48;;
48881;SDS011;57063;51.406;-2.402;2024-01-07T02:16:12;23.88;;;14.02;;
48881;SDS011;57063;51.406;-2.402;2024-01-07T02:18:39;25.38;;;13.25;;
48881;SDS011;57063;51.406;-2.402;2024-01-07T02:21:09;25.30;;;14.20;;
48881;SDS011;57063;51.406;-2.402;2024-01-07T02:23:36;27.02;;;14.15;;
48881;SDS011;57063;51.406;-2.402;2024-01-07T02:26:02;34.80;;;14.75;;
48881;SDS011;57063;51.406;-2.402;2024-01-07T02:28:28;25.63;;;13.35;;
48881;SDS011;57063;51.406;-2.402;2024-01-07T02:30:54;21.90;;;13.23;;
48881;SDS011;57063;51.406;-2.402;2024-01-07T02:33:19;24.20;;;13.80;;
48881;SDS011;57063;51.406;-2.402;2024-01-07T02:35:45;25.40;;;13.18;;
48881;SDS011;57063;51.406;-2.402;2024-01-07T02:38:10;22.05;;;12.35;;
48881;SDS011;57063;51.406;-2.402;2024-01-07T02:40:35;25.30;;;12.85;;
48881;SDS011;57063;51.406;-2.402;2024-01-07T02:43:01;22.20;;;13.45;;
48881;SDS011;57063;51.406;-2.402;2024-01-07T02:45:26;23.88;;;13.15;;
48881;SDS011;57063;51.406;-2.402;2024-01-07T02:47:51;21.77;;;12.75;;
48881;SDS011;57063;51.406;-2.402;2024-01-07T02:50:17;32.85;;;13.45;;
48881;SDS011;57063;51.406;-2.402;2024-01-07T02:52:42;20.98;;;13.25;;
48881;SDS011;57063;51.406;-2.402;2024-01-07T02:55:08;28.02;;;16.65;;
48881;SDS011;57063;51.406;-2.402;2024-01-07T02:57:33;21.83;;;11.90;;
48881;SDS011;57063;51.406;-2.402;2024-01-07T02:59:59;21.70;;;12.52;;
48881;SDS011;57063;51.406;-2.402;2024-01-07T03:02:24;23.05;;;12.30;;
48881;SDS011;57063;51.406;-2.402;2024-01-07T03:04:50;19.83;;;12.77;;
48881;SDS011;57063;51.406;-2.402;2024-01-07T03:07:15;20.75;;;12.10;;
48881;SDS011;57063;51.406;-2.402;2024-01-07T03:09:40;20.98;;;12.77;;
48881;SDS011;57063;51.406;-2.402;2024-01-07T03:12:06;26.73;;;14.38;;
48881;SDS011;57063;51.406;-2.402;2024-01-07T03:14:31;18.73;;;12.50;;
48881;SDS011;57063;51.406;-2.402;2024-01-07T03:16:56;22.13;;;12.73;;
48881;SDS011;57063;51.406;-2.402;2024-01-07T03:19:22;22.25;;;12.95;;
48881;SDS011;57063;51.406;-2.402;2024-01-07T03:21:48;21.48;;;12.25;;
48881;SDS011;57063;51.406;-2.402;2024-01-07T03:24:13;19.08;;;12.95;;
48881;SDS011;57063;51.406;-2.402;2024-01-07T03:26:39;20.60;;;12.48;;
48881;SDS011;57063;51.406;-2.402;2024-01-07T03:29:04;22.67;;;11.82;;
48881;SDS011;57063;51.406;-2.402;2024-01-07T03:31:30;23.95;;;13.70;;
48881;SDS011;57063;51.406;-2.402;2024-01-07T03:33:55;21.38;;;13.32;;
48881;SDS011;57063;51.406;-2.402;2024-01-07T03:36:20;23.65;;;13.75;;
48881;SDS011;57063;51.406;-2.402;2024-01-07T03:38:46;21.55;;;12.43;;
48881;SDS011;57063;51.406;-2.402;2024-01-07T03:41:18;21.05;;;13.18;;
48881;SDS011;57063;51.406;-2.402;2024-01-07T03:43:47;21.90;;;13.77;;
48881;SDS011;57063;51.406;-2.402;2024-01-07T03:46:13;26.80;;;14.57;;
48881;SDS011;57063;51.406;-2.402;2024-01-07T03:48:40;22.42;;;13.35;;
48881;SDS011;57063;51.406;-2.402;2024-01-07T03:51:06;25.77;;;15.07;;
48881;SDS011;57063;51.406;-2.402;2024-01-07T03:53:32;26.45;;;16.00;;
48881;SDS011;57063;51.406;-2.402;2024-01-07T03:55:57;25.23;;;14.75;;
48881;SDS011;57063;51.406;-2.402;2024-01-07T03:58:23;20.23;;;13.23;;
48881;SDS011;57063;51.406;-2.402;2024-01-07T04:00:48;23.52;;;14.20;;
48881;SDS011;57063;51.406;-2.402;2024-01-07T04:03:14;25.65;;;13.50;;
48881;SDS011;57063;51.406;-2.402;2024-01-07T04:05:39;24.00;;;13.52;;
48881;SDS011;57063;51.406;-2.402;2024-01-07T04:08:04;19.88;;;13.07;;
48881;SDS011;57063;51.406;-2.402;2024-01-07T04:10:30;18.98;;;13.25;;
48881;SDS011;57063;51.406;-2.402;2024-01-07T04:12:55;25.63;;;13.80;;
48881;SDS011;57063;51.406;-2.402;2024-01-07T04:15:21;20.33;;;13.40;;
48881;SDS011;57063;51.406;-2.402;2024-01-07T04:17:48;21.02;;;13.20;;
48881;SDS011;57063;51.406;-2.402;2024-01-07T04:20:13;24.33;;;13.00;;
48881;SDS011;57063;51.406;-2.402;2024-01-07T04:22:39;19.42;;;13.30;;
48881;SDS011;57063;51.406;-2.402;2024-01-07T04:25:04;22.35;;;13.57;;
48881;SDS011;57063;51.406;-2.402;2024-01-07T04:27:33;19.35;;;13.00;;
48881;SDS011;57063;51.406;-2.402;2024-01-07T04:29:59;25.30;;;14.10;;
48881;SDS011;57063;51.406;-2.402;2024-01-07T04:32:25;22.95;;;14.60;;
48881;SDS011;57063;51.406;-2.402;2024-01-07T04:34:50;22.30;;;13.98;;
48881;SDS011;57063;51.406;-2.402;2024-01-07T04:37:15;22.27;;;12.27;;
48881;SDS011;57063;51.406;-2.402;2024-01-07T04:39:41;28.02;;;14.60;;
48881;SDS011;57063;51.406;-2.402;2024-01-07T04:42:06;19.73;;;13.25;;
48881;SDS011;57063;51.406;-2.402;2024-01-07T04:44:32;25.50;;;14.73;;
48881;SDS011;57063;51.406;-2.402;2024-01-07T04:46:57;21.90;;;14.35;;
48881;SDS011;57063;51.406;-2.402;2024-01-07T04:49:22;23.65;;;14.65;;
48881;SDS011;57063;51.406;-2.402;2024-01-07T04:51:48;23.48;;;13.77;;
48881;SDS011;57063;51.406;-2.402;2024-01-07T04:54:13;23.00;;;14.38;;
48881;SDS011;57063;51.406;-2.402;2024-01-07T04:56:38;20.65;;;13.98;;
48881;SDS011;57063;51.406;-2.402;2024-01-07T04:59:04;22.02;;;13.63;;
48881;SDS011;57063;51.406;-2.402;2024-01-07T05:01:29;21.80;;;13.13;;
48881;SDS011;57063;51.406;-2.402;2024-01-07T05:03:54;24.05;;;13.40;;
48881;SDS011;57063;51.406;-2.402;2024-01-07T05:06:20;19.30;;;12.35;;
48881;SDS011;57063;51.406;-2.402;2024-01-07T05:08:45;22.15;;;13.13;;
48881;SDS011;57063;51.406;-2.402;2024-01-07T05:11:11;24.67;;;13.52;;
48881;SDS011;57063;51.406;-2.402;2024-01-07T05:13:36;22.05;;;14.77;;
48881;SDS011;57063;51.406;-2.402;2024-01-07T05:16:02;23.75;;;14.15;;
48881;SDS011;57063;51.406;-2.402;2024-01-07T05:18:27;26.98;;;14.55;;
48881;SDS011;57063;51.406;-2.402;2024-01-07T05:20:53;22.05;;;12.90;;
48881;SDS011;57063;51.406;-2.402;2024-01-07T05:23:18;25.35;;;14.38;;
48881;SDS011;57063;51.406;-2.402;2024-01-07T05:25:44;26.73;;;14.85;;
48881;SDS011;57063;51.406;-2.402;2024-01-07T05:28:10;23.08;;;14.63;;
48881;SDS011;57063;51.406;-2.402;2024-01-07T05:30:36;22.63;;;14.32;;
48881;SDS011;57063;51.406;-2.402;2024-01-07T05:33:01;26.58;;;15.50;;
48881;SDS011;57063;51.406;-2.402;2024-01-07T05:35:27;22.73;;;14.70;;
48881;SDS011;57063;51.406;-2.402;2024-01-07T05:37:52;26.08;;;14.60;;
48881;SDS011;57063;51.406;-2.402;2024-01-07T05:40:17;30.05;;;15.10;;
48881;SDS011;57063;51.406;-2.402;2024-01-07T05:42:43;25.77;;;15.30;;
48881;SDS011;57063;51.406;-2.402;2024-01-07T05:45:08;24.95;;;15.88;;
48881;SDS011;57063;51.406;-2.402;2024-01-07T05:47:34;31.00;;;15.20;;
48881;SDS011;57063;51.406;-2.402;2024-01-07T05:49:59;27.15;;;15.05;;
48881;SDS011;57063;51.406;-2.402;2024-01-07T05:52:24;24.90;;;14.38;;
48881;SDS011;57063;51.406;-2.402;2024-01-07T05:54:50;27.63;;;15.93;;
48881;SDS011;57063;51.406;-2.402;2024-01-07T05:57:15;23.25;;;14.27;;
48881;SDS011;57063;51.406;-2.402;2024-01-07T05:59:43;25.05;;;13.68;;
48881;SDS011;57063;51.406;-2.402;2024-01-07T06:02:08;25.25;;;14.45;;
48881;SDS011;57063;51.406;-2.402;2024-01-07T06:04:34;24.63;;;14.05;;
48881;SDS011;57063;51.406;-2.402;2024-01-07T06:06:59;19.77;;;13.27;;
48881;SDS011;57063;51.406;-2.402;2024-01-07T06:09:24;22.02;;;13.20;;
48881;SDS011;57063;51.406;-2.402;2024-01-07T06:11:50;23.60;;;13.43;;
48881;SDS011;57063;51.406;-2.402;2024-01-07T06:14:15;22.40;;;13.38;;
48881;SDS011;57063;51.406;-2.402;2024-01-07T06:16:41;19.65;;;13.32;;
48881;SDS011;57063;51.406;-2.402;2024-01-07T06:19:07;23.70;;;14.27;;
48881;SDS011;57063;51.406;-2.402;2024-01-07T06:21:33;20.35;;;13.57;;
48881;SDS011;57063;51.406;-2.402;2024-01-07T06:23:58;23.90;;;14.20;;
48881;SDS011;57063;51.406;-2.402;2024-01-07T06:26:23;20.73;;;13.75;;
48881;SDS011;57063;51.406;-2.402;2024-01-07T06:28:49;21.98;;;13.88;;
48881;SDS011;57063;51.406;-2.402;2024-01-07T06:31:15;20.75;;;13.65;;
48881;SDS011;57063;51.406;-2.402;2024-01-07T06:33:40;20.85;;;13.18;;
48881;SDS011;57063;51.406;-2.402;2024-01-07T06:36:05;21.23;;;12.85;;
48881;SDS011;57063;51.406;-2.402;2024-01-07T06:38:31;22.50;;;12.68;;
48881;SDS011;57063;51.406;-2.402;2024-01-07T06:40:56;20.80;;;13.48;;
48881;SDS011;57063;51.406;-2.402;2024-01-07T06:43:26;21.52;;;12.40;;
48881;SDS011;57063;51.406;-2.402;2024-01-07T06:45:52;20.20;;;11.95;;
48881;SDS011;57063;51.406;-2.402;2024-01-07T06:48:18;21.33;;;11.32;;
48881;SDS011;57063;51.406;-2.402;2024-01-07T06:50:43;17.98;;;11.65;;
48881;SDS011;57063;51.406;-2.402;2024-01-07T06:53:09;21.58;;;11.25;;
48881;SDS011;57063;51.406;-2.402;2024-01-07T06:55:34;19.77;;;10.98;;
48881;SDS011;57063;51.406;-2.402;2024-01-07T06:58:00;16.15;;;10.73;;
48881;SDS011;57063;51.406;-2.402;2024-01-07T07:00:25;20.40;;;11.43;;
48881;SDS011;57063;51.406;-2.402;2024-01-07T07:02:50;26.13;;;13.27;;
48881;SDS011;57063;51.406;-2.402;2024-01-07T07:05:16;15.50;;;10.45;;
48881;SDS011;57063;51.406;-2.402;2024-01-07T07:07:42;17.58;;;11.43;;
48881;SDS011;57063;51.406;-2.402;2024-01-07T07:10:07;22.02;;;11.45;;
48881;SDS011;57063;51.406;-2.402;2024-01-07T07:12:33;20.05;;;12.45;;
48881;SDS011;57063;51.406;-2.402;2024-01-07T07:14:58;18.10;;;10.93;;
48881;SDS011;57063;51.406;-2.402;2024-01-07T07:17:24;18.33;;;9.63;;
48881;SDS011;57063;51.406;-2.402;2024-01-07T07:19:49;17.20;;;10.23;;
48881;SDS011;57063;51.406;-2.402;2024-01-07T07:22:14;16.48;;;10.10;;
48881;SDS011;57063;51.406;-2.402;2024-01-07T07:24:44;17.48;;;8.75;;
48881;SDS011;57063;51.406;-2.402;2024-01-07T07:27:10;11.80;;;8.43;;
48881;SDS011;57063;51.406;-2.402;2024-01-07T07:29:35;11.98;;;7.35;;
48881;SDS011;57063;51.406;-2.402;2024-01-07T07:32:01;10.88;;;7.25;;
48881;SDS011;57063;51.406;-2.402;2024-01-07T07:34:26;15.70;;;7.15;;
48881;SDS011;57063;51.406;-2.402;2024-01-07T07:36:52;15.57;;;8.50;;
48881;SDS011;57063;51.406;-2.402;2024-01-07T07:39:17;10.15;;;7.32;;
48881;SDS011;57063;51.406;-2.402;2024-01-07T07:41:43;11.45;;;6.47;;
48881;SDS011;57063;51.406;-2.402;2024-01-07T07:44:08;8.43;;;5.25;;
48881;SDS011;57063;51.406;-2.402;2024-01-07T07:46:33;11.40;;;5.93;;
48881;SDS011;57063;51.406;-2.402;2024-01-07T07:48:59;8.68;;;5.28;;
48881;SDS011;57063;51.406;-2.402;2024-01-07T07:51:26;10.43;;;4.80;;
48881;SDS011;57063;51.406;-2.402;2024-01-07T07:53:51;6.50;;;4.07;;
48881;SDS011;57063;51.406;-2.402;2024-01-07T07:56:16;6.90;;;4.30;;
48881;SDS011;57063;51.406;-2.402;2024-01-07T07:58:42;6.03;;;4.05;;
48881;SDS011;57063;51.406;-2.402;2024-01-07T08:01:10;8.13;;;4.47;;
48881;SDS011;57063;51.406;-2.402;2024-01-07T08:03:49;9.32;;;4.50;;
48881;SDS011;57063;51.406;-2.402;2024-01-07T08:06:14;6.72;;;3.63;;
48881;SDS011;57063;51.406;-2.402;2024-01-07T08:08:40;8.23;;;4.28;;
48881;SDS011;57063;51.406;-2.402;2024-01-07T08:11:14;11.32;;;4.05;;
48881;SDS011;57063;51.406;-2.402;2024-01-07T08:14:01;5.93;;;3.95;;
48881;SDS011;57063;51.406;-2.402;2024-01-07T08:16:27;5.82;;;3.33;;
48881;SDS011;57063;51.406;-2.402;2024-01-07T08:18:53;8.13;;;3.70;;
48881;SDS011;57063;51.406;-2.402;2024-01-07T08:21:21;7.88;;;3.55;;
48881;SDS011;57063;51.406;-2.402;2024-01-07T08:23:47;4.75;;;3.03;;
48881;SDS011;57063;51.406;-2.402;2024-01-07T08:26:17;8.13;;;3.45;;
48881;SDS011;57063;51.406;-2.402;2024-01-07T08:28:44;7.43;;;4.00;;
48881;SDS011;57063;51.406;-2.402;2024-01-07T08:31:09;9.50;;;3.33;;
48881;SDS011;57063;51.406;-2.402;2024-01-07T08:33:35;7.28;;;3.35;;
48881;SDS011;57063;51.406;-2.402;2024-01-07T08:36:00;8.10;;;3.85;;
48881;SDS011;57063;51.406;-2.402;2024-01-07T08:38:30;6.82;;;3.42;;
48881;SDS011;57063;51.406;-2.402;2024-01-07T08:40:55;12.63;;;6.15;;
48881;SDS011;57063;51.406;-2.402;2024-01-07T08:43:21;6.45;;;3.88;;
48881;SDS011;57063;51.406;-2.402;2024-01-07T08:45:50;8.38;;;3.85;;
48881;SDS011;57063;51.406;-2.402;2024-01-07T08:48:27;8.43;;;3.65;;
48881;SDS011;57063;51.406;-2.402;2024-01-07T08:51:01;6.05;;;3.58;;
48881;SDS011;57063;51.406;-2.402;2024-01-07T08:53:30;11.88;;;4.05;;
48881;SDS011;57063;51.406;-2.402;2024-01-07T08:55:56;5.00;;;3.42;;
48881;SDS011;57063;51.406;-2.402;2024-01-07T08:58:22;11.65;;;3.97;;
48881;SDS011;57063;51.406;-2.402;2024-01-07T09:00:47;6.38;;;3.65;;
48881;SDS011;57063;51.406;-2.402;2024-01-07T09:03:13;6.70;;;3.10;;
48881;SDS011;57063;51.406;-2.402;2024-01-07T09:05:38;6.82;;;3.40;;
48881;SDS011;57063;51.406;-2.402;2024-01-07T09:08:04;5.57;;;3.30;;
48881;SDS011;57063;51.406;-2.402;2024-01-07T09:10:31;11.07;;;3.25;;
48881;SDS011;57063;51.406;-2.402;2024-01-07T09:12:58;6.63;;;3.30;;
48881;SDS011;57063;51.406;-2.402;2024-01-07T09:15:24;7.15;;;3.30;;
48881;SDS011;57063;51.406;-2.402;2024-01-07T09:17:50;7.43;;;3.20;;
48881;SDS011;57063;51.406;-2.402;2024-01-07T09:20:15;6.63;;;2.75;;
48881;SDS011;57063;51.406;-2.402;2024-01-07T09:22:41;4.13;;;2.42;;
48881;SDS011;57063;51.406;-2.402;2024-01-07T09:25:08;6.45;;;2.63;;
48881;SDS011;57063;51.406;-2.402;2024-01-07T09:27:34;4.80;;;2.50;;
48881;SDS011;57063;51.406;-2.402;2024-01-07T09:29:59;3.25;;;2.13;;
48881;SDS011;57063;51.406;-2.402;2024-01-07T09:32:25;9.20;;;3.03;;
48881;SDS011;57063;51.406;-2.402;2024-01-07T09:34:50;4.18;;;1.50;;
48881;SDS011;57063;51.406;-2.402;2024-01-07T09:37:16;6.30;;;1.63;;
48881;SDS011;57063;51.406;-2.402;2024-01-07T09:39:42;9.93;;;1.58;;
48881;SDS011;57063;51.406;-2.402;2024-01-07T09:42:09;4.53;;;1.63;;
48881;SDS011;57063;51.406;-2.402;2024-01-07T09:44:38;4.18;;;1.20;;
48881;SDS011;57063;51.406;-2.402;2024-01-07T09:47:04;4.40;;;1.42;;
48881;SDS011;57063;51.406;-2.402;2024-01-07T09:49:30;8.15;;;1.25;;
48881;SDS011;57063;51.406;-2.402;2024-01-07T09:51:57;2.25;;;1.17;;
48881;SDS011;57063;51.406;-2.402;2024-01-07T09:54:26;5.72;;;1.60;;
48881;SDS011;57063;51.406;-2.402;2024-01-07T09:56:55;6.55;;;1.15;;
48881;SDS011;57063;51.406;-2.402;2024-01-07T09:59:25;2.28;;;1.48;;
48881;SDS011;57063;51.406;-2.402;2024-01-07T10:01:52;1.15;;;0.88;;
48881;SDS011;57063;51.406;-2.402;2024-01-07T10:04:18;4.15;;;1.55;;
48881;SDS011;57063;51.406;-2.402;2024-01-07T10:06:43;3.60;;;1.20;;
48881;SDS011;57063;51.406;-2.402;2024-01-07T10:09:10;1.95;;;1.10;;
48881;SDS011;57063;51.406;-2.402;2024-01-07T10:11:37;2.90;;;1.15;;
48881;SDS011;57063;51.406;-2.402;2024-01-07T10:14:04;4.00;;;1.40;;
48881;SDS011;57063;51.406;-2.402;2024-01-07T10:16:32;3.20;;;1.30;;
48881;SDS011;57063;51.406;-2.402;2024-01-07T10:18:58;3.80;;;1.30;;
48881;SDS011;57063;51.406;-2.402;2024-01-07T10:21:27;1.98;;;1.13;;
48881;SDS011;57063;51.406;-2.402;2024-01-07T10:24:11;4.80;;;1.25;;
48881;SDS011;57063;51.406;-2.402;2024-01-07T10:26:37;3.10;;;1.20;;
48881;SDS011;57063;51.406;-2.402;2024-01-07T10:29:04;3.25;;;0.90;;
48881;SDS011;57063;51.406;-2.402;2024-01-07T10:34:09;2.88;;;1.02;;
48881;SDS011;57063;51.406;-2.402;2024-01-07T10:36:46;5.70;;;1.33;;
48881;SDS011;57063;51.406;-2.402;2024-01-07T10:39:11;4.07;;;1.23;;
48881;SDS011;57063;51.406;-2.402;2024-01-07T10:41:37;4.55;;;1.48;;
48881;SDS011;57063;51.406;-2.402;2024-01-07T10:44:04;5.00;;;1.10;;
48881;SDS011;57063;51.406;-2.402;2024-01-07T10:46:30;2.83;;;1.17;;
48881;SDS011;57063;51.406;-2.402;2024-01-07T10:51:28;6.45;;;1.85;;
48881;SDS011;57063;51.406;-2.402;2024-01-07T10:53:55;3.70;;;1.73;;
48881;SDS011;57063;51.406;-2.402;2024-01-07T10:56:29;1.77;;;1.33;;
48881;SDS011;57063;51.406;-2.402;2024-01-07T10:59:03;4.90;;;1.45;;
48881;SDS011;57063;51.406;-2.402;2024-01-07T11:01:29;5.90;;;1.63;;
48881;SDS011;57063;51.406;-2.402;2024-01-07T11:03:57;2.95;;;1.10;;
48881;SDS011;57063;51.406;-2.402;2024-01-07T11:06:51;3.78;;;0.82;;
48881;SDS011;57063;51.406;-2.402;2024-01-07T11:10:25;3.65;;;1.25;;
48881;SDS011;57063;51.406;-2.402;2024-01-07T11:12:26;9.93;;;1.63;;
48881;SDS011;57063;51.406;-2.402;2024-01-07T11:14:51;4.45;;;1.27;;
48881;SDS011;57063;51.406;-2.402;2024-01-07T11:20:01;2.95;;;1.33;;
48881;SDS011;57063;51.406;-2.402;2024-01-07T11:22:28;5.28;;;1.30;;
48881;SDS011;57063;51.406;-2.402;2024-01-07T11:24:54;5.07;;;1.33;;
48881;SDS011;57063;51.406;-2.402;2024-01-07T11:27:23;7.88;;;2.15;;
48881;SDS011;57063;51.406;-2.402;2024-01-07T11:29:56;4.32;;;1.02;;
48881;SDS011;57063;51.406;-2.402;2024-01-07T11:32:30;6.20;;;1.05;;
48881;SDS011;57063;51.406;-2.402;2024-01-07T11:38:18;7.28;;;1.55;;
48881;SDS011;57063;51.406;-2.402;2024-01-07T11:40:43;3.42;;;1.10;;
48881;SDS011;57063;51.406;-2.402;2024-01-07T11:43:09;4.65;;;1.73;;
48881;SDS011;57063;51.406;-2.402;2024-01-07T11:45:36;6.20;;;1.13;;
48881;SDS011;57063;51.406;-2.402;2024-01-07T11:48:01;5.43;;;1.00;;
48881;SDS011;57063;51.406;-2.402;2024-01-07T11:50:27;6.05;;;1.10;;
48881;SDS011;57063;51.406;-2.402;2024-01-07T11:52:53;2.67;;;1.08;;
48881;SDS011;57063;51.406;-2.402;2024-01-07T11:55:18;3.10;;;1.17;;
48881;SDS011;57063;51.406;-2.402;2024-01-07T11:57:45;5.03;;;1.17;;
48881;SDS011;57063;51.406;-2.402;2024-01-07T12:00:11;5.40;;;1.48;;
48881;SDS011;57063;51.406;-2.402;2024-01-07T12:02:37;3.20;;;0.80;;
48881;SDS011;57063;51.406;-2.402;2024-01-07T12:05:02;2.80;;;1.35;;
48881;SDS011;57063;51.406;-2.402;2024-01-07T12:07:28;2.53;;;0.90;;
48881;SDS011;57063;51.406;-2.402;2024-01-07T12:09:57;2.63;;;0.80;;
48881;SDS011;57063;51.406;-2.402;2024-01-07T12:12:23;9.73;;;1.10;;
48881;SDS011;57063;51.406;-2.402;2024-01-07T12:14:48;3.05;;;1.90;;
48881;SDS011;57063;51.406;-2.402;2024-01-07T12:17:16;1.83;;;1.10;;
48881;SDS011;57063;51.406;-2.402;2024-01-07T12:19:42;5.38;;;1.40;;
48881;SDS011;57063;51.406;-2.402;2024-01-07T12:22:08;5.97;;;1.20;;
48881;SDS011;57063;51.406;-2.402;2024-01-07T12:24:34;8.43;;;1.20;;
48881;SDS011;57063;51.406;-2.402;2024-01-07T12:27:03;5.18;;;1.20;;
48881;SDS011;57063;51.406;-2.402;2024-01-07T12:29:32;2.97;;;0.95;;
48881;SDS011;57063;51.406;-2.402;2024-01-07T12:31:57;5.00;;;1.25;;
48881;SDS011;57063;51.406;-2.402;2024-01-07T12:34:30;4.32;;;1.00;;
48881;SDS011;57063;51.406;-2.402;2024-01-07T12:36:55;4.45;;;1.10;;
48881;SDS011;57063;51.406;-2.402;2024-01-07T12:39:21;5.20;;;1.10;;
48881;SDS011;57063;51.406;-2.402;2024-01-07T12:41:46;5.80;;;1.55;;
48881;SDS011;57063;51.406;-2.402;2024-01-07T12:44:12;3.33;;;0.98;;
48881;SDS011;57063;51.406;-2.402;2024-01-07T12:46:37;3.35;;;0.98;;
48881;SDS011;57063;51.406;-2.402;2024-01-07T12:49:03;2.70;;;1.10;;
48881;SDS011;57063;51.406;-2.402;2024-01-07T12:51:28;2.95;;;1.27;;
48881;SDS011;57063;51.406;-2.402;2024-01-07T12:53:54;3.55;;;0.98;;
48881;SDS011;57063;51.406;-2.402;2024-01-07T12:56:21;3.25;;;0.98;;
48881;SDS011;57063;51.406;-2.402;2024-01-07T12:58:47;1.95;;;0.73;;
48881;SDS011;57063;51.406;-2.402;2024-01-07T13:01:12;5.15;;;0.35;;
48881;SDS011;57063;51.406;-2.402;2024-01-07T13:03:38;2.40;;;0.40;;
48881;SDS011;57063;51.406;-2.402;2024-01-07T13:06:04;8.63;;;3.15;;
48881;SDS011;57063;51.406;-2.402;2024-01-07T13:08:30;3.40;;;0.90;;
48881;SDS011;57063;51.406;-2.402;2024-01-07T13:10:56;2.35;;;0.70;;
48881;SDS011;57063;51.406;-2.402;2024-01-07T13:13:23;5.28;;;0.75;;
48881;SDS011;57063;51.406;-2.402;2024-01-07T13:15:49;2.83;;;0.57;;
48881;SDS011;57063;51.406;-2.402;2024-01-07T13:18:15;2.28;;;0.57;;
48881;SDS011;57063;51.406;-2.402;2024-01-07T13:20:41;2.47;;;0.68;;
48881;SDS011;57063;51.406;-2.402;2024-01-07T13:23:06;1.58;;;0.55;;
48881;SDS011;57063;51.406;-2.402;2024-01-07T13:25:32;1.83;;;0.60;;
48881;SDS011;57063;51.406;-2.402;2024-01-07T13:27:57;2.20;;;0.60;;
48881;SDS011;57063;51.406;-2.402;2024-01-07T13:30:23;1.30;;;0.70;;
48881;SDS011;57063;51.406;-2.402;2024-01-07T13:32:48;5.22;;;2.03;;
48881;SDS011;57063;51.406;-2.402;2024-01-07T13:35:14;4.90;;;0.88;;
48881;SDS011;57063;51.406;-2.402;2024-01-07T13:37:40;5.95;;;0.90;;
48881;SDS011;57063;51.406;-2.402;2024-01-07T13:40:09;3.33;;;0.73;;
48881;SDS011;57063;51.406;-2.402;2024-01-07T13:42:38;3.33;;;0.93;;
48881;SDS011;57063;51.406;-2.402;2024-01-07T13:45:04;4.30;;;1.05;;
48881;SDS011;57063;51.406;-2.402;2024-01-07T13:47:30;2.20;;;0.73;;
48881;SDS011;57063;51.406;-2.402;2024-01-07T13:49:55;3.65;;;0.50;;
48881;SDS011;57063;51.406;-2.402;2024-01-07T13:52:21;1.83;;;0.68;;
48881;SDS011;57063;51.406;-2.402;2024-01-07T13:54:46;8.18;;;1.02;;
48881;SDS011;57063;51.406;-2.402;2024-01-07T13:57:12;8.05;;;1.80;;
48881;SDS011;57063;51.406;-2.402;2024-01-07T13:59:38;4.82;;;0.47;;
48881;SDS011;57063;51.406;-2.402;2024-01-07T14:02:03;2.63;;;1.27;;
48881;SDS011;57063;51.406;-2.402;2024-01-07T14:04:30;3.63;;;1.17;;
48881;SDS011;57063;51.406;-2.402;2024-01-07T14:06:56;10.68;;;1.15;;
48881;SDS011;57063;51.406;-2.402;2024-01-07T14:09:22;7.18;;;0.85;;
48881;SDS011;57063;51.406;-2.402;2024-01-07T14:11:48;8.55;;;1.00;;
48881;SDS011;57063;51.406;-2.402;2024-01-07T14:14:13;3.10;;;0.93;;
48881;SDS011;57063;51.406;-2.402;2024-01-07T14:16:39;12.40;;;1.10;;
48881;SDS011;57063;51.406;-2.402;2024-01-07T14:19:05;4.28;;;1.30;;
48881;SDS011;57063;51.406;-2.402;2024-01-07T14:21:30;2.25;;;0.88;;
48881;SDS011;57063;51.406;-2.402;2024-01-07T14:23:56;4.45;;;1.95;;
48881;SDS011;57063;51.406;-2.402;2024-01-07T14:26:21;3.25;;;1.20;;
48881;SDS011;57063;51.406;-2.402;2024-01-07T14:28:48;4.22;;;1.60;;